KHGR/HGR METAR and TAF weather

Enter ICAO airport designator
Station Type Date Time Source
KHGR METAR 2021/10/22 17:53 UTC NOAA

KHGR 221753Z 31010KT 10SM FEW040 19/08 A2994 RMK AO2 SLP146 T01890078 10194 20122 58012


Station Type Date Time Source
KHGR Decoded METAR 2021/10/22 17:53 UTC NOAA

HAGERSTOWN REGIONAL AIRPORT, MD, United States (KHGR) 39-42N 077-44W 224M
Oct 22, 2021 - 01:53 PM EDT / 2021.10.22 1753 UTC
Wind: from the NW (310 degrees) at 12 MPH (10 KT):0
Visibility: 10 mile(s):0
Sky conditions: mostly clear
Temperature: 66.0 F (18.9 C)
Dew Point: 46.0 F (7.8 C)
Relative Humidity: 48%
Pressure (altimeter): 29.94 in. Hg (1013 hPa)
Pressure tendency: 0.04 inches (1.2 hPa) lower than three hours ago
ob: KHGR 221753Z 31010KT 10SM FEW040 19/08 A2994 RMK AO2 SLP146 T01890078 10194 20122 58012
cycle: 18

Station Type Date Time Source
KHGR TAF UTC NOAA

Error!

Example: see airport list